Time;durP1;ratioP1;P1;durP2;ratioP2;P2;SDS_P1;SDS_P2;PMS_P1;PMS_P2;Temp;Humidity;BMP_temperature;BMP_pressure;BME280_temperature;BME280_humidity;BME280_pressure;Samples;Min_cycle;Max_cycle;Signal;HPM_P1;HPM_P2
2023/06/26 00:02:05;;;;;;;10.70;6.60;;;;;;;;;;110623;1269;21933;-80
2023/06/26 00:04:32;;;;;;;12.00;6.20;;;;;;;;;;110678;1274;22887;-80
2023/06/26 00:06:59;;;;;;;10.90;6.10;;;;;;;;;;110652;1251;22164;-80
2023/06/26 00:09:26;;;;;;;11.10;5.50;;;;;;;;;;110449;1273;22100;-80
2023/06/26 00:11:53;;;;;;;11.40;6.00;;;;;;;;;;110658;1274;22750;-80
2023/06/26 00:14:20;;;;;;;11.90;6.10;;;;;;;;;;110684;1273;22104;-79
2023/06/26 00:16:49;;;;;;;12.20;6.50;;;;;;;;;;110651;1274;22162;-80
2023/06/26 00:19:16;;;;;;;12.90;6.80;;;;;;;;;;110883;1267;22119;-81
2023/06/26 00:21:46;;;;;;;11.50;6.80;;;;;;;;;;110652;1274;22168;-80
2023/06/26 00:24:13;;;;;;;11.70;6.80;;;;;;;;;;110654;1275;22352;-81
2023/06/26 00:26:40;;;;;;;11.40;6.40;;;;;;;;;;110684;1274;22101;-80
2023/06/26 00:29:07;;;;;;;13.20;6.50;;;;;;;;;;110695;1261;22117;-80
2023/06/26 00:31:35;;;;;;;13.40;6.50;;;;;;;;;;110504;1273;22104;-80
2023/06/26 00:34:02;;;;;;;13.50;6.30;;;;;;;;;;110648;1273;22101;-80
2023/06/26 00:36:29;;;;;;;11.60;6.30;;;;;;;;;;110665;1273;22195;-80
2023/06/26 00:38:57;;;;;;;11.00;6.10;;;;;;;;;;111034;1251;22201;-80
2023/06/26 00:41:24;;;;;;;12.00;5.80;;;;;;;;;;110494;1274;22114;-80
2023/06/26 00:43:51;;;;;;;13.50;6.20;;;;;;;;;;110620;1274;22140;-80
2023/06/26 00:46:18;;;;;;;11.50;5.70;;;;;;;;;;110569;1275;22113;-80
2023/06/26 00:48:46;;;;;;;11.30;5.90;;;;;;;;;;110710;1254;22596;-80
2023/06/26 00:51:12;;;;;;;12.10;5.80;;;;;;;;;;110649;1274;22129;-80
2023/06/26 00:53:39;;;;;;;9.70;5.80;;;;;;;;;;110531;1275;22128;-80
2023/06/26 00:56:06;;;;;;;10.70;6.00;;;;;;;;;;110614;1274;22271;-80
2023/06/26 00:58:33;;;;;;;11.30;5.40;;;;;;;;;;110571;1254;22129;-80
2023/06/26 01:01:02;;;;;;;9.10;5.70;;;;;;;;;;110581;1275;22356;-80
2023/06/26 01:03:29;;;;;;;11.80;5.70;;;;;;;;;;110558;1275;22235;-80
2023/06/26 01:05:57;;;;;;;11.10;5.40;;;;;;;;;;110501;1275;22106;-79
2023/06/26 01:08:24;;;;;;;10.10;5.10;;;;;;;;;;110629;1251;22172;-80
2023/06/26 01:10:51;;;;;;;10.80;5.30;;;;;;;;;;110523;1274;22693;-80
2023/06/26 01:13:18;;;;;;;9.90;5.90;;;;;;;;;;110527;1274;22117;-81
2023/06/26 01:15:46;;;;;;;12.00;6.50;;;;;;;;;;110434;1274;22122;-80
2023/06/26 01:18:15;;;;;;;10.40;5.80;;;;;;;;;;110546;1253;22459;-80
2023/06/26 01:20:42;;;;;;;12.90;5.90;;;;;;;;;;110368;1275;22102;-80
2023/06/26 01:23:30;;;;;;;8.60;5.20;;;;;;;;;;110495;1275;22320;-80
2023/06/26 01:26:15;;;;;;;10.50;4.90;;;;;;;;;;110452;1275;22107;-80
2023/06/26 01:28:43;;;;;;;9.40;5.30;;;;;;;;;;110510;1251;22893;-80
2023/06/26 01:31:13;;;;;;;9.70;5.10;;;;;;;;;;110435;1274;22758;-80
2023/06/26 01:33:40;;;;;;;10.40;5.30;;;;;;;;;;110535;1274;22103;-80
2023/06/26 01:36:07;;;;;;;10.40;5.40;;;;;;;;;;110439;1274;22335;-81
2023/06/26 01:38:36;;;;;;;10.70;5.50;;;;;;;;;;110499;1252;22019;-80
2023/06/26 01:41:06;;;;;;;11.60;5.70;;;;;;;;;;110395;1275;22891;-81
2023/06/26 01:43:36;;;;;;;10.50;5.80;;;;;;;;;;110504;1275;22559;-81
2023/06/26 01:46:08;;;;;;;10.80;5.20;;;;;;;;;;110522;1276;22116;-81
2023/06/26 01:48:37;;;;;;;8.50;4.80;;;;;;;;;;110351;1276;22110;-80
2023/06/26 01:51:05;;;;;;;11.00;5.20;;;;;;;;;;110825;1254;22123;-80
2023/06/26 01:53:36;;;;;;;9.70;5.10;;;;;;;;;;110486;1275;22917;-81
2023/06/26 01:56:07;;;;;;;11.30;5.50;;;;;;;;;;110435;1272;22152;-80
2023/06/26 01:58:35;;;;;;;9.00;5.20;;;;;;;;;;110497;1275;22114;-81
2023/06/26 02:01:02;;;;;;;10.70;5.70;;;;;;;;;;110815;1254;22699;-81
2023/06/26 02:03:30;;;;;;;9.80;5.60;;;;;;;;;;110358;1276;22874;-81
2023/06/26 02:05:56;;;;;;;10.90;6.00;;;;;;;;;;110485;1276;22075;-80
2023/06/26 02:08:23;;;;;;;12.10;5.70;;;;;;;;;;110368;1276;22114;-81
2023/06/26 02:10:50;;;;;;;10.00;5.40;;;;;;;;;;110641;1257;22133;-80
2023/06/26 02:13:17;;;;;;;9.00;5.10;;;;;;;;;;110444;1275;22249;-81
2023/06/26 02:15:44;;;;;;;10.30;5.70;;;;;;;;;;110426;1275;22834;-81
2023/06/26 02:18:10;;;;;;;10.20;5.30;;;;;;;;;;110691;1275;22975;-80
2023/06/26 02:20:37;;;;;;;10.30;5.70;;;;;;;;;;110739;1253;22129;-81
2023/06/26 02:23:04;;;;;;;8.80;5.10;;;;;;;;;;110248;1276;22648;-81
2023/06/26 02:25:31;;;;;;;10.70;5.30;;;;;;;;;;110656;1276;22113;-81
2023/06/26 02:27:57;;;;;;;13.00;6.00;;;;;;;;;;110642;1261;22114;-81
2023/06/26 02:30:24;;;;;;;10.20;6.10;;;;;;;;;;110519;1257;22105;-80
2023/06/26 02:32:51;;;;;;;12.10;5.60;;;;;;;;;;110603;1271;22118;-81
2023/06/26 02:35:19;;;;;;;12.50;5.50;;;;;;;;;;110402;1275;22187;-81
2023/06/26 02:37:45;;;;;;;10.00;5.10;;;;;;;;;;110634;1275;22292;-81
2023/06/26 02:40:13;;;;;;;11.00;5.20;;;;;;;;;;110424;1253;22167;-81
2023/06/26 02:42:41;;;;;;;11.10;6.10;;;;;;;;;;110491;1276;22119;-81
2023/06/26 02:45:08;;;;;;;11.00;5.50;;;;;;;;;;110451;1276;22939;-81
2023/06/26 02:47:34;;;;;;;12.80;6.10;;;;;;;;;;110399;1276;22575;-81
2023/06/26 02:50:01;;;;;;;13.80;5.90;;;;;;;;;;110444;1275;22041;-81
2023/06/26 02:52:30;;;;;;;10.50;5.60;;;;;;;;;;110390;1264;22164;-80
2023/06/26 02:54:57;;;;;;;10.40;5.50;;;;;;;;;;110449;1276;22111;-80
2023/06/26 02:57:23;;;;;;;9.60;5.50;;;;;;;;;;110588;1276;22100;-81
2023/06/26 02:59:50;;;;;;;9.80;5.40;;;;;;;;;;110650;1276;22098;-81
2023/06/26 03:02:17;;;;;;;9.10;5.10;;;;;;;;;;110630;1259;22139;-81
2023/06/26 03:04:45;;;;;;;11.90;5.80;;;;;;;;;;110485;1277;22115;-80
2023/06/26 03:07:13;;;;;;;13.20;5.60;;;;;;;;;;110412;1277;22127;-81
2023/06/26 03:09:41;;;;;;;12.40;6.20;;;;;;;;;;110284;1276;22534;-81
2023/06/26 03:12:09;;;;;;;10.30;5.60;;;;;;;;;;110657;1257;22158;-81
2023/06/26 03:14:48;;;;;;;12.90;5.80;;;;;;;;;;110520;1276;22092;-81
2023/06/26 03:17:15;;;;;;;10.40;5.70;;;;;;;;;;110487;1276;22103;-81
2023/06/26 03:20:06;;;;;;;9.30;5.30;;;;;;;;;;110481;1276;22820;-80
2023/06/26 03:22:42;;;;;;;12.70;5.30;;;;;;;;;;110623;1257;22109;-81
2023/06/26 03:25:09;;;;;;;12.00;6.10;;;;;;;;;;110448;1277;22904;-81
2023/06/26 03:27:36;;;;;;;9.90;5.10;;;;;;;;;;110357;1276;22805;-81
2023/06/26 03:30:03;;;;;;;12.40;5.40;;;;;;;;;;110347;1277;22809;-80
2023/06/26 03:32:30;;;;;;;11.00;6.00;;;;;;;;;;110655;1256;22188;-81
2023/06/26 03:34:57;;;;;;;11.60;6.30;;;;;;;;;;110465;1276;22089;-80
2023/06/26 03:37:24;;;;;;;10.60;6.10;;;;;;;;;;110247;1276;21985;-81
2023/06/26 03:39:53;;;;;;;12.20;5.50;;;;;;;;;;110486;1276;22117;-80
2023/06/26 03:49:45;;;;;;;11.10;5.40;;;;;;;;;;110033;1282;22165;-81
2023/06/26 03:52:15;;;;;;;10.70;5.50;;;;;;;;;;110135;1259;22159;-81
2023/06/26 03:54:45;;;;;;;13.40;6.00;;;;;;;;;;110022;1281;22125;-81
2023/06/26 03:57:12;;;;;;;13.00;6.20;;;;;;;;;;109994;1281;22154;-81
2023/06/26 03:59:41;;;;;;;14.00;6.00;;;;;;;;;;110029;1281;22144;-81
2023/06/26 04:02:12;;;;;;;11.50;5.30;;;;;;;;;;110013;1262;22904;-81
2023/06/26 04:04:39;;;;;;;10.90;5.50;;;;;;;;;;109989;1282;22108;-82
2023/06/26 04:07:09;;;;;;;11.20;5.10;;;;;;;;;;110007;1282;22156;-81
2023/06/26 04:09:37;;;;;;;11.10;5.10;;;;;;;;;;109955;1282;22154;-81
2023/06/26 04:12:04;;;;;;;10.10;5.00;;;;;;;;;;110021;1259;22141;-81
2023/06/26 04:14:51;;;;;;;8.90;5.20;;;;;;;;;;110050;1279;22140;-81
2023/06/26 04:17:19;;;;;;;10.10;5.50;;;;;;;;;;110096;1281;22915;-81
2023/06/26 04:19:46;;;;;;;10.70;5.40;;;;;;;;;;110015;1281;22159;-81
2023/06/26 04:22:13;;;;;;;10.30;5.20;;;;;;;;;;110115;1257;22305;-81
2023/06/26 04:24:40;;;;;;;11.50;5.30;;;;;;;;;;110278;1278;22093;-81
2023/06/26 04:27:07;;;;;;;12.20;5.70;;;;;;;;;;110259;1278;22125;-80
2023/06/26 04:29:34;;;;;;;11.20;5.00;;;;;;;;;;110257;1275;22796;-80
2023/06/26 04:32:01;;;;;;;12.10;5.00;;;;;;;;;;110252;1278;23195;-81
2023/06/26 04:34:32;;;;;;;12.10;5.30;;;;;;;;;;110799;1259;22167;-80
2023/06/26 04:36:59;;;;;;;15.20;5.10;;;;;;;;;;110459;1277;22943;-80
2023/06/26 04:39:26;;;;;;;12.90;5.20;;;;;;;;;;110242;1277;22167;-81
2023/06/26 04:41:53;;;;;;;16.20;6.00;;;;;;;;;;110425;1277;22866;-81
2023/06/26 04:44:21;;;;;;;13.50;5.20;;;;;;;;;;110651;1256;22185;-81
2023/06/26 04:46:49;;;;;;;10.80;4.80;;;;;;;;;;110338;1278;22356;-81
2023/06/26 04:49:18;;;;;;;13.10;5.60;;;;;;;;;;110174;1279;22831;-81
2023/06/26 04:51:45;;;;;;;13.90;4.90;;;;;;;;;;110171;1280;22151;-81
2023/06/26 04:54:13;;;;;;;12.60;5.10;;;;;;;;;;110496;1256;22171;-80
2023/06/26 04:56:41;;;;;;;12.10;4.50;;;;;;;;;;110161;1279;22584;-81
2023/06/26 04:59:12;;;;;;;12.10;5.00;;;;;;;;;;110180;1279;22129;-81
2023/06/26 05:01:40;;;;;;;16.10;5.00;;;;;;;;;;110195;1279;22124;-81
2023/06/26 05:04:11;;;;;;;10.30;4.90;;;;;;;;;;110448;1259;22122;-80
2023/06/26 05:06:38;;;;;;;14.20;5.40;;;;;;;;;;110116;1280;23114;-81
2023/06/26 05:09:05;;;;;;;15.90;5.70;;;;;;;;;;110219;1280;22080;-80
2023/06/26 05:11:33;;;;;;;15.20;5.40;;;;;;;;;;110198;1280;22077;-80
2023/06/26 05:14:00;;;;;;;15.70;5.30;;;;;;;;;;110264;1259;22172;-80
2023/06/26 05:16:28;;;;;;;11.90;4.90;;;;;;;;;;110312;1279;22112;-80
2023/06/26 05:18:56;;;;;;;11.30;4.70;;;;;;;;;;110310;1279;22117;-80
2023/06/26 05:21:24;;;;;;;15.20;5.10;;;;;;;;;;110205;1279;22133;-80
2023/06/26 05:23:55;;;;;;;11.70;4.60;;;;;;;;;;110355;1257;22123;-80
2023/06/26 05:26:24;;;;;;;10.50;4.70;;;;;;;;;;110197;1280;22115;-80
2023/06/26 05:28:52;;;;;;;14.70;4.90;;;;;;;;;;110135;1280;22907;-80
2023/06/26 05:31:21;;;;;;;15.60;5.60;;;;;;;;;;110185;1280;23009;-81
2023/06/26 05:33:50;;;;;;;15.60;5.50;;;;;;;;;;110218;1262;22841;-80
2023/06/26 05:36:18;;;;;;;12.10;4.90;;;;;;;;;;110356;1279;22108;-80
2023/06/26 05:38:46;;;;;;;9.80;4.90;;;;;;;;;;110179;1279;22062;-80
2023/06/26 05:41:14;;;;;;;12.80;5.00;;;;;;;;;;110175;1279;22164;-80
2023/06/26 05:43:41;;;;;;;12.30;4.90;;;;;;;;;;110164;1256;23030;-81
2023/06/26 05:46:10;;;;;;;13.60;4.90;;;;;;;;;;110060;1280;22099;-81
2023/06/26 05:48:39;;;;;;;11.40;4.60;;;;;;;;;;110074;1280;22808;-80
2023/06/26 05:51:08;;;;;;;9.40;4.80;;;;;;;;;;110178;1279;22125;-80
2023/06/26 05:53:38;;;;;;;9.60;4.50;;;;;;;;;;110074;1279;23177;-80
2023/06/26 05:56:08;;;;;;;12.50;4.80;;;;;;;;;;110194;1260;22092;-80
2023/06/26 05:58:37;;;;;;;13.10;5.20;;;;;;;;;;110256;1278;22111;-80
2023/06/26 06:01:05;;;;;;;18.60;6.10;;;;;;;;;;110240;1278;22164;-80
2023/06/26 06:03:35;;;;;;;14.40;4.30;;;;;;;;;;110261;1278;23074;-80
2023/06/26 06:06:04;;;;;;;12.70;5.00;;;;;;;;;;110534;1256;22088;-81
2023/06/26 06:08:33;;;;;;;15.90;5.40;;;;;;;;;;110118;1279;22115;-80
2023/06/26 06:11:01;;;;;;;16.70;5.40;;;;;;;;;;110283;1279;22088;-80
2023/06/26 06:13:30;;;;;;;15.60;5.50;;;;;;;;;;110151;1279;22230;-80
2023/06/26 06:16:00;;;;;;;24.80;7.20;;;;;;;;;;110414;1259;21702;-80
2023/06/26 06:18:30;;;;;;;23.20;5.60;;;;;;;;;;110390;1278;22553;-80
2023/06/26 06:20:59;;;;;;;16.70;5.60;;;;;;;;;;110195;1278;22139;-80
2023/06/26 06:23:28;;;;;;;24.10;6.20;;;;;;;;;;110253;1278;22067;-80
2023/06/26 06:25:57;;;;;;;18.10;5.70;;;;;;;;;;110192;1262;22125;-80
2023/06/26 06:28:26;;;;;;;19.60;5.50;;;;;;;;;;110261;1269;22643;-80
2023/06/26 06:30:55;;;;;;;13.10;5.00;;;;;;;;;;110258;1279;22806;-80
2023/06/26 06:33:24;;;;;;;11.70;4.50;;;;;;;;;;110245;1279;22059;-80
2023/06/26 06:35:53;;;;;;;12.60;4.60;;;;;;;;;;110494;1257;22741;-80
2023/06/26 06:38:22;;;;;;;13.00;4.50;;;;;;;;;;110261;1278;22310;-80
2023/06/26 06:40:52;;;;;;;10.90;4.50;;;;;;;;;;110380;1278;23080;-81
2023/06/26 06:43:21;;;;;;;9.00;4.40;;;;;;;;;;110239;1278;22100;-80
2023/06/26 06:54:59;;;;;;;12.60;4.00;;;;;;;;;;104147;1301;544821;-86
2023/06/26 06:57:26;;;;;;;10.50;4.40;;;;;;;;;;106344;1285;22537;-81
2023/06/26 06:59:52;;;;;;;7.20;3.70;;;;;;;;;;106107;1285;22556;-81
2023/06/26 07:02:19;;;;;;;7.30;3.80;;;;;;;;;;106150;1285;22629;-84
2023/06/26 07:04:46;;;;;;;9.00;3.60;;;;;;;;;;106112;1271;25454;-84
2023/06/26 07:07:18;;;;;;;8.30;4.00;;;;;;;;;;106134;1281;22543;-82
2023/06/26 07:09:45;;;;;;;8.40;4.00;;;;;;;;;;104229;1284;3156777;-80
2023/06/26 07:12:12;;;;;;;7.70;4.00;;;;;;;;;;106851;1284;26057;-79
2023/06/26 07:14:41;;;;;;;7.10;3.50;;;;;;;;;;106638;1283;22529;-83
2023/06/26 07:17:08;;;;;;;8.80;4.10;;;;;;;;;;106877;1283;24270;-85
2023/06/26 07:19:36;;;;;;;7.50;3.90;;;;;;;;;;106590;1283;22906;-83
2023/06/26 07:22:02;;;;;;;8.10;4.00;;;;;;;;;;106546;1283;22528;-80
2023/06/26 07:24:29;;;;;;;9.30;4.20;;;;;;;;;;106429;1261;22735;-84
2023/06/26 07:26:56;;;;;;;8.90;3.90;;;;;;;;;;106480;1284;25428;-81
2023/06/26 07:29:34;;;;;;;9.20;4.20;;;;;;;;;;106445;1284;22608;-83
2023/06/26 07:32:01;;;;;;;9.00;3.90;;;;;;;;;;106470;1284;22527;-83
2023/06/26 07:34:28;;;;;;;6.30;3.20;;;;;;;;;;106405;1261;22550;-81
2023/06/26 07:36:55;;;;;;;7.80;3.60;;;;;;;;;;106496;1284;24494;-81
2023/06/26 07:39:21;;;;;;;8.10;3.90;;;;;;;;;;106506;1283;24310;-80
2023/06/26 07:41:49;;;;;;;6.50;3.20;;;;;;;;;;106449;1284;22530;-87
2023/06/26 07:44:17;;;;;;;7.70;3.30;;;;;;;;;;106538;1284;22523;-80
2023/06/26 07:46:44;;;;;;;6.70;3.60;;;;;;;;;;106516;1266;24183;-84
2023/06/26 07:49:11;;;;;;;8.20;3.70;;;;;;;;;;106419;1283;24230;-81
2023/06/26 07:51:47;;;;;;;6.10;3.30;;;;;;;;;;106520;1283;22494;-82
2023/06/26 07:54:14;;;;;;;5.80;3.10;;;;;;;;;;106487;1283;24202;-81
2023/06/26 07:56:54;;;;;;;7.80;3.40;;;;;;;;;;106453;1269;24199;-81
2023/06/26 07:59:24;;;;;;;10.10;3.60;;;;;;;;;;106216;1285;22544;-81
2023/06/26 08:01:52;;;;;;;6.60;3.50;;;;;;;;;;106458;1275;24250;-82
2023/06/26 08:04:22;;;;;;;6.60;3.30;;;;;;;;;;106447;1284;24351;-83
2023/06/26 08:06:53;;;;;;;7.50;3.10;;;;;;;;;;106278;1282;22551;-81
2023/06/26 08:09:26;;;;;;;13.20;3.80;;;;;;;;;;106308;1263;24206;-81
2023/06/26 08:11:53;;;;;;;7.00;3.30;;;;;;;;;;106465;1281;24227;-80
2023/06/26 08:14:20;;;;;;;8.20;3.90;;;;;;;;;;106408;1279;22633;-80
2023/06/26 08:16:50;;;;;;;6.60;2.80;;;;;;;;;;106517;1271;24272;-84
2023/06/26 08:19:17;;;;;;;6.70;3.00;;;;;;;;;;106454;1285;23912;-80
2023/06/26 08:21:49;;;;;;;6.00;3.10;;;;;;;;;;106439;1285;23769;-82
2023/06/26 08:24:18;;;;;;;8.20;3.30;;;;;;;;;;106409;1285;25425;-84
2023/06/26 08:26:46;;;;;;;7.80;3.70;;;;;;;;;;106459;1266;22527;-83
2023/06/26 08:29:13;;;;;;;5.90;3.00;;;;;;;;;;106503;1285;22528;-82
2023/06/26 08:31:40;;;;;;;9.60;3.20;;;;;;;;;;106474;1277;22537;-84
2023/06/26 08:34:08;;;;;;;10.10;3.30;;;;;;;;;;106417;1283;22538;-82
2023/06/26 08:36:35;;;;;;;9.00;3.40;;;;;;;;;;106200;1270;22642;-79
2023/06/26 08:39:04;;;;;;;7.20;2.90;;;;;;;;;;106413;1279;22533;-80
2023/06/26 08:41:32;;;;;;;8.50;3.10;;;;;;;;;;106429;1280;22544;-80
2023/06/26 08:44:10;;;;;;;5.00;2.50;;;;;;;;;;106442;1284;22530;-82
2023/06/26 08:46:45;;;;;;;6.60;3.00;;;;;;;;;;106377;1268;22550;-83
2023/06/26 08:49:22;;;;;;;6.50;2.80;;;;;;;;;;106415;1277;24302;-79
2023/06/26 08:51:54;;;;;;;7.60;3.30;;;;;;;;;;106519;1281;22573;-84
2023/06/26 08:54:24;;;;;;;40.20;24.70;;;;;;;;;;106492;1277;22571;-81
2023/06/26 08:56:50;;;;;;;8.20;3.90;;;;;;;;;;106174;1285;25328;-84
2023/06/26 08:59:31;;;;;;;6.70;3.10;;;;;;;;;;106467;1278;22764;-80
2023/06/26 09:02:02;;;;;;;6.90;3.40;;;;;;;;;;106296;1279;25230;-81
2023/06/26 09:04:30;;;;;;;6.20;3.20;;;;;;;;;;106335;1279;22649;-82
2023/06/26 09:07:05;;;;;;;6.40;3.20;;;;;;;;;;106122;1267;22517;-81
2023/06/26 09:09:32;;;;;;;8.10;3.10;;;;;;;;;;106958;1275;22523;-79
2023/06/26 09:11:58;;;;;;;8.70;3.60;;;;;;;;;;106962;1273;22621;-85
2023/06/26 09:14:31;;;;;;;7.20;3.30;;;;;;;;;;106602;1277;25316;-80
2023/06/26 09:17:02;;;;;;;7.60;3.60;;;;;;;;;;106712;1278;22525;-80
2023/06/26 09:19:29;;;;;;;7.60;3.30;;;;;;;;;;106799;1272;22534;-84
2023/06/26 09:21:59;;;;;;;6.50;3.30;;;;;;;;;;106830;1273;22748;-84
2023/06/26 09:24:26;;;;;;;5.70;2.80;;;;;;;;;;106881;1272;22594;-81
2023/06/26 09:27:03;;;;;;;7.10;3.00;;;;;;;;;;106713;1270;24359;-83
2023/06/26 09:29:31;;;;;;;5.50;3.00;;;;;;;;;;106922;1270;22530;-79
2023/06/26 09:31:59;;;;;;;10.20;3.10;;;;;;;;;;106885;1270;24346;-81
2023/06/26 09:34:41;;;;;;;7.40;3.40;;;;;;;;;;106623;1276;22597;-81
2023/06/26 09:37:17;;;;;;;6.70;3.20;;;;;;;;;;106796;1254;22580;-83
2023/06/26 09:39:44;;;;;;;5.90;3.20;;;;;;;;;;106881;1276;22589;-80
2023/06/26 09:42:14;;;;;;;5.60;3.10;;;;;;;;;;106738;1276;25214;-79
2023/06/26 09:44:45;;;;;;;6.70;2.80;;;;;;;;;;106900;1271;25330;-82
2023/06/26 09:47:12;;;;;;;6.50;3.10;;;;;;;;;;106743;1278;22521;-83
2023/06/26 09:49:56;;;;;;;6.60;3.00;;;;;;;;;;106377;1277;22521;-83
2023/06/26 09:52:26;;;;;;;7.80;3.30;;;;;;;;;;106824;1278;24243;-81
2023/06/26 09:55:13;;;;;;;6.80;3.10;;;;;;;;;;106884;1277;25271;-79
2023/06/26 09:57:45;;;;;;;7.30;3.70;;;;;;;;;;106933;1262;24240;-82
2023/06/26 10:00:13;;;;;;;5.70;3.10;;;;;;;;;;107044;1260;24216;-80
2023/06/26 10:02:40;;;;;;;7.00;2.90;;;;;;;;;;106729;1278;23898;-80
2023/06/26 10:12:21;;;;;;;6.40;3.00;;;;;;;;;;103962;1302;544810;-79
2023/06/26 10:14:49;;;;;;;6.60;3.40;;;;;;;;;;106054;1286;22568;-83
2023/06/26 10:17:20;;;;;;;9.00;3.20;;;;;;;;;;106068;1286;22666;-79
2023/06/26 10:19:52;;;;;;;9.10;3.10;;;;;;;;;;106014;1280;22548;-84
2023/06/26 10:22:31;;;;;;;7.60;3.30;;;;;;;;;;105989;1269;22623;-80
2023/06/26 10:25:03;;;;;;;5.60;3.10;;;;;;;;;;103540;1285;3351429;-81
2023/06/26 10:27:35;;;;;;;6.80;3.20;;;;;;;;;;106224;1278;25296;-81
2023/06/26 10:30:06;;;;;;;7.70;3.00;;;;;;;;;;106111;1278;22536;-80
2023/06/26 10:32:33;;;;;;;6.50;3.00;;;;;;;;;;106451;1264;25559;-82
2023/06/26 10:35:03;;;;;;;5.30;2.80;;;;;;;;;;106557;1273;25545;-79
2023/06/26 10:37:41;;;;;;;6.90;3.50;;;;;;;;;;106617;1272;22534;-81
2023/06/26 10:40:11;;;;;;;8.10;3.40;;;;;;;;;;106843;1273;25390;-79
2023/06/26 10:42:39;;;;;;;8.20;3.00;;;;;;;;;;106463;1264;22550;-80
2023/06/26 10:45:11;;;;;;;7.80;3.20;;;;;;;;;;106411;1277;22529;-80
2023/06/26 10:47:40;;;;;;;7.30;3.40;;;;;;;;;;106608;1275;26652;-81
2023/06/26 10:50:18;;;;;;;7.30;3.40;;;;;;;;;;106623;1276;22534;-84
2023/06/26 10:53:07;;;;;;;5.90;3.20;;;;;;;;;;106482;1266;22611;-89
2023/06/26 10:55:34;;;;;;;6.70;3.50;;;;;;;;;;106450;1282;23098;-85
2023/06/26 10:58:07;;;;;;;7.90;3.80;;;;;;;;;;106467;1273;22600;-83
2023/06/26 11:00:34;;;;;;;6.70;3.60;;;;;;;;;;106766;1279;22538;-86
2023/06/26 11:03:01;;;;;;;8.30;3.50;;;;;;;;;;106557;1280;24209;-82
2023/06/26 11:05:29;;;;;;;9.00;3.70;;;;;;;;;;106408;1278;25403;-82
2023/06/26 11:08:19;;;;;;;8.60;3.50;;;;;;;;;;106614;1275;22531;-87
2023/06/26 11:10:53;;;;;;;7.30;3.30;;;;;;;;;;106532;1276;23039;-81
2023/06/26 11:13:20;;;;;;;6.70;3.30;;;;;;;;;;106671;1263;22596;-83
2023/06/26 11:15:48;;;;;;;6.60;3.50;;;;;;;;;;106479;1275;24212;-84
2023/06/26 11:18:14;;;;;;;7.50;3.70;;;;;;;;;;106420;1274;25527;-83
2023/06/26 11:20:41;;;;;;;8.70;3.20;;;;;;;;;;106406;1275;25506;-82
2023/06/26 11:23:09;;;;;;;6.60;3.50;;;;;;;;;;107089;1256;23863;-86
2023/06/26 11:25:37;;;;;;;7.00;3.40;;;;;;;;;;106984;1272;22537;-83
2023/06/26 11:28:05;;;;;;;6.90;3.70;;;;;;;;;;107044;1270;25414;-85
2023/06/26 11:30:33;;;;;;;8.90;3.70;;;;;;;;;;106789;1270;24298;-84
2023/06/26 11:33:04;;;;;;;6.40;3.30;;;;;;;;;;107003;1258;22530;-83
2023/06/26 11:35:34;;;;;;;6.90;3.00;;;;;;;;;;106938;1263;22650;-82
2023/06/26 11:38:05;;;;;;;6.60;3.50;;;;;;;;;;106887;1268;22540;-83
2023/06/26 11:40:34;;;;;;;8.50;3.60;;;;;;;;;;107139;1270;22545;-85
2023/06/26 11:43:04;;;;;;;7.60;3.90;;;;;;;;;;106980;1258;25291;-83
2023/06/26 11:45:32;;;;;;;6.60;3.20;;;;;;;;;;107129;1276;22535;-83
2023/06/26 11:48:00;;;;;;;7.10;3.70;;;;;;;;;;107090;1272;22530;-89
2023/06/26 11:50:27;;;;;;;6.70;3.10;;;;;;;;;;107114;1272;22596;-83
2023/06/26 11:52:58;;;;;;;7.40;3.70;;;;;;;;;;106897;1272;22524;-86
2023/06/26 11:55:26;;;;;;;7.90;3.40;;;;;;;;;;107103;1270;22635;-85
2023/06/26 11:57:54;;;;;;;7.20;3.60;;;;;;;;;;107240;1275;22769;-84
2023/06/26 12:00:21;;;;;;;8.70;3.60;;;;;;;;;;107203;1263;22649;-82
2023/06/26 12:02:49;;;;;;;7.50;4.00;;;;;;;;;;106994;1275;22519;-82
2023/06/26 12:05:17;;;;;;;8.70;5.30;;;;;;;;;;107284;1257;22524;-84
2023/06/26 12:07:45;;;;;;;7.80;3.90;;;;;;;;;;106962;1275;25346;-86
2023/06/26 12:10:13;;;;;;;7.20;3.50;;;;;;;;;;107026;1275;25377;-83
2023/06/26 12:12:40;;;;;;;8.00;3.70;;;;;;;;;;107226;1275;25550;-84
2023/06/26 12:15:13;;;;;;;6.40;3.30;;;;;;;;;;107198;1257;22549;-84
2023/06/26 12:17:40;;;;;;;6.00;3.40;;;;;;;;;;107134;1269;22520;-86
2023/06/26 12:20:18;;;;;;;6.80;4.00;;;;;;;;;;107032;1275;22618;-87
2023/06/26 12:22:48;;;;;;;7.60;3.70;;;;;;;;;;106965;1275;22518;-90
2023/06/26 12:25:15;;;;;;;6.90;3.80;;;;;;;;;;106988;1259;22580;-85
2023/06/26 12:27:47;;;;;;;8.00;3.60;;;;;;;;;;106955;1275;22532;-83
2023/06/26 12:30:14;;;;;;;6.60;3.30;;;;;;;;;;106943;1275;25349;-84
2023/06/26 12:32:48;;;;;;;6.70;3.80;;;;;;;;;;107075;1272;25368;-82
2023/06/26 12:35:20;;;;;;;6.90;3.30;;;;;;;;;;106783;1272;25385;-82
2023/06/26 12:37:47;;;;;;;8.60;4.00;;;;;;;;;;107048;1275;25360;-83
2023/06/26 12:40:19;;;;;;;7.00;3.60;;;;;;;;;;106993;1274;23249;-83
2023/06/26 12:42:48;;;;;;;6.20;3.50;;;;;;;;;;106961;1270;25625;-85
2023/06/26 12:45:16;;;;;;;7.80;3.70;;;;;;;;;;106990;1267;22609;-85
2023/06/26 12:47:56;;;;;;;6.90;3.60;;;;;;;;;;107138;1253;22538;-82
2023/06/26 12:50:23;;;;;;;7.70;3.30;;;;;;;;;;106954;1270;25356;-81
2023/06/26 12:52:53;;;;;;;7.60;3.80;;;;;;;;;;106949;1275;22527;-80
2023/06/26 12:55:20;;;;;;;6.90;3.70;;;;;;;;;;106765;1259;23010;-81
2023/06/26 12:57:51;;;;;;;7.20;3.60;;;;;;;;;;107082;1275;24363;-83
2023/06/26 13:00:18;;;;;;;6.60;3.30;;;;;;;;;;107093;1253;24194;-82
2023/06/26 13:02:45;;;;;;;6.00;3.30;;;;;;;;;;106912;1275;24250;-84
2023/06/26 13:05:12;;;;;;;6.00;3.30;;;;;;;;;;107020;1256;22521;-80
2023/06/26 13:07:39;;;;;;;6.80;3.60;;;;;;;;;;107037;1269;22556;-81
2023/06/26 13:10:10;;;;;;;7.00;3.40;;;;;;;;;;107149;1275;22517;-82
2023/06/26 13:12:37;;;;;;;6.80;3.50;;;;;;;;;;107183;1275;25321;-82
2023/06/26 13:15:11;;;;;;;5.90;3.50;;;;;;;;;;107144;1270;22521;-82
2023/06/26 13:17:38;;;;;;;6.40;3.40;;;;;;;;;;107497;1275;22637;-81
2023/06/26 13:20:11;;;;;;;8.30;3.50;;;;;;;;;;107257;1275;22587;-80
2023/06/26 13:22:40;;;;;;;7.20;3.20;;;;;;;;;;107117;1275;22559;-85
2023/06/26 13:25:07;;;;;;;5.90;2.90;;;;;;;;;;107071;1257;25318;-82
2023/06/26 13:27:34;;;;;;;6.60;3.50;;;;;;;;;;107179;1275;24198;-81
2023/06/26 13:30:02;;;;;;;5.60;3.10;;;;;;;;;;106968;1275;25332;-84
2023/06/26 13:32:29;;;;;;;9.10;3.60;;;;;;;;;;107057;1275;22524;-86
2023/06/26 13:34:57;;;;;;;6.80;4.00;;;;;;;;;;106959;1275;25229;-83
2023/06/26 13:37:37;;;;;;;7.20;3.40;;;;;;;;;;106962;1272;22548;-81
2023/06/26 13:40:24;;;;;;;7.20;3.50;;;;;;;;;;110580;1275;22155;-79
2023/06/26 13:43:00;;;;;;;8.00;4.00;;;;;;;;;;110603;1269;22393;-79
2023/06/26 13:45:27;;;;;;;9.70;3.50;;;;;;;;;;110545;1256;22133;-80
2023/06/26 13:47:56;;;;;;;7.20;3.60;;;;;;;;;;110330;1276;22211;-80
2023/06/26 13:50:23;;;;;;;6.40;3.20;;;;;;;;;;110551;1276;22167;-80
2023/06/26 13:52:50;;;;;;;7.50;3.20;;;;;;;;;;110479;1276;22190;-80
2023/06/26 13:55:17;;;;;;;6.00;3.20;;;;;;;;;;110369;1253;22151;-81
2023/06/26 13:57:47;;;;;;;7.00;3.60;;;;;;;;;;110481;1275;22074;-80
2023/06/26 14:00:19;;;;;;;7.10;4.20;;;;;;;;;;110537;1275;22090;-79
2023/06/26 14:02:46;;;;;;;8.50;3.90;;;;;;;;;;110586;1275;22529;-80
2023/06/26 14:05:14;;;;;;;6.70;3.90;;;;;;;;;;110602;1275;22185;-80
2023/06/26 14:07:43;;;;;;;7.00;3.70;;;;;;;;;;110858;1253;22133;-80
2023/06/26 14:10:10;;;;;;;7.30;4.30;;;;;;;;;;110539;1275;22258;-81
2023/06/26 14:12:37;;;;;;;10.70;3.60;;;;;;;;;;110479;1275;21728;-80
2023/06/26 14:15:04;;;;;;;6.30;3.40;;;;;;;;;;110505;1275;22090;-81
2023/06/26 14:17:31;;;;;;;9.00;3.70;;;;;;;;;;110681;1253;23001;-80
2023/06/26 14:19:58;;;;;;;6.50;4.10;;;;;;;;;;110570;1276;22094;-80
2023/06/26 14:22:25;;;;;;;7.00;3.80;;;;;;;;;;110584;1276;22116;-81
2023/06/26 14:24:51;;;;;;;7.60;4.00;;;;;;;;;;110575;1276;22078;-80
2023/06/26 14:27:18;;;;;;;6.00;3.30;;;;;;;;;;110754;1253;22060;-79
2023/06/26 14:29:45;;;;;;;7.20;3.10;;;;;;;;;;110580;1275;22114;-79
2023/06/26 14:32:12;;;;;;;8.00;3.50;;;;;;;;;;110516;1275;22094;-80
2023/06/26 14:34:39;;;;;;;8.30;3.70;;;;;;;;;;110537;1275;22306;-81
2023/06/26 14:37:06;;;;;;;6.70;4.00;;;;;;;;;;110633;1253;22177;-80
2023/06/26 14:39:33;;;;;;;6.10;3.50;;;;;;;;;;110582;1276;22124;-80
2023/06/26 14:42:02;;;;;;;7.20;3.70;;;;;;;;;;110246;1276;22165;-80
2023/06/26 14:44:29;;;;;;;7.90;3.60;;;;;;;;;;110618;1276;22114;-80
2023/06/26 14:46:56;;;;;;;8.40;3.70;;;;;;;;;;110583;1253;22157;-82
2023/06/26 14:49:26;;;;;;;8.40;4.10;;;;;;;;;;110483;1276;22110;-80
2023/06/26 14:51:56;;;;;;;8.40;3.70;;;;;;;;;;110625;1276;22101;-80
2023/06/26 14:54:22;;;;;;;8.10;3.70;;;;;;;;;;110463;1276;22018;-80
2023/06/26 14:56:49;;;;;;;8.50;4.10;;;;;;;;;;110469;1259;23316;-80
2023/06/26 14:59:16;;;;;;;7.30;3.90;;;;;;;;;;110492;1276;22895;-81